createdAt,value
2023-04-16T14:50:18.561Z,102726.03
2023-04-16T14:52:55.856Z,102736.75
2023-04-16T14:55:22.234Z,102734.34
2023-04-16T14:57:48.704Z,102732.94
2023-04-16T15:00:18.745Z,102731.13
2023-04-16T15:02:46.381Z,102736.75
2023-04-16T15:05:13.005Z,102731.69
2023-04-16T15:07:39.569Z,102730.88
2023-04-16T15:10:08.232Z,102730.31
2023-04-16T15:12:34.651Z,102732.38
2023-04-16T15:15:01.029Z,102731.59
2023-04-16T15:17:27.526Z,102741.31
2023-04-16T15:19:54.017Z,102745.34
2023-04-16T15:22:20.490Z,102734.91
2023-04-16T15:24:46.958Z,102736.66
2023-04-16T15:27:14.649Z,102735.06
2023-04-16T15:29:41.116Z,102737.91
2023-04-16T15:32:07.510Z,102739.19
2023-04-16T15:34:34.125Z,102737.81
2023-04-16T15:37:00.617Z,102731.97
2023-04-16T15:39:27.105Z,102733.34
2023-04-16T15:42:01.445Z,102731.84
2023-04-16T15:44:30.985Z,102731.84
2023-04-16T15:46:57.808Z,102728.63
2023-04-16T15:49:24.738Z,102728.50
2023-04-16T15:51:51.963Z,102730.94
2023-04-16T15:54:18.541Z,102732.63
2023-04-16T15:56:46.592Z,102721.72
2023-04-16T15:59:13.552Z,102723.91
2023-04-16T16:01:40.051Z,102736.03
2023-04-16T16:04:07.459Z,102721.50
2023-04-16T16:06:34.281Z,102727.00
2023-04-16T16:09:00.937Z,102726.09
2023-04-16T16:11:27.637Z,102717.38
2023-04-16T16:13:54.122Z,102726.44
2023-04-16T16:16:21.744Z,102713.59
2023-04-16T16:18:48.437Z,102715.69
2023-04-16T16:21:14.862Z,102719.31
2023-04-16T16:23:41.340Z,102733.81
2023-04-16T16:26:07.829Z,102730.13
2023-04-16T16:28:37.477Z,102725.16
2023-04-16T16:31:07.317Z,102731.16
2023-04-16T16:33:33.855Z,102731.72
2023-04-16T16:36:00.589Z,102733.81
2023-04-16T16:38:27.382Z,102732.75
2023-04-16T16:40:53.853Z,102739.88
2023-04-16T16:43:20.665Z,102734.16
2023-04-16T16:45:47.185Z,102740.22
2023-04-16T16:48:13.659Z,102737.94
2023-04-16T16:50:40.159Z,102742.06
2023-04-16T16:53:06.736Z,102739.19
2023-04-16T16:55:33.249Z,102745.28
2023-04-16T16:57:59.738Z,102744.69
2023-04-16T17:00:26.256Z,102741.28
2023-04-16T17:02:52.866Z,102746.44
2023-04-16T17:05:19.913Z,102743.09
2023-04-16T17:07:46.685Z,102748.25
2023-04-16T17:10:19.745Z,102743.19
2023-04-16T17:12:48.136Z,102739.75
2023-04-16T17:15:14.785Z,102750.88
2023-04-16T17:17:41.484Z,102743.41
2023-04-16T17:20:09.564Z,102746.50
2023-04-16T17:22:37.170Z,102747.50
2023-04-16T17:25:03.937Z,102741.66
2023-04-16T17:27:33.698Z,102741.88
2023-04-16T17:30:05.298Z,102748.31
2023-04-16T17:32:32.545Z,102752.34
2023-04-16T17:35:00.189Z,102758.66
2023-04-16T17:37:27.248Z,102771.56
2023-04-16T17:39:53.731Z,102772.91
2023-04-16T17:42:20.495Z,102770.25
2023-04-16T17:44:47.236Z,102772.31
2023-04-16T17:47:13.695Z,102778.81
2023-04-16T17:49:40.276Z,102769.69
2023-04-16T17:52:06.895Z,102777.25
2023-04-16T17:54:49.806Z,102773.56
2023-04-16T17:57:16.432Z,102774.47
2023-04-16T17:59:42.976Z,102776.53
2023-04-16T18:02:09.527Z,102777.97
2023-04-16T18:04:36.356Z,102787.50
2023-04-16T18:07:02.896Z,102795.41
2023-04-16T18:09:29.991Z,102795.63
2023-04-16T18:11:57.004Z,102796.41
2023-04-16T18:14:23.582Z,102794.00
2023-04-16T18:16:50.018Z,102803.03
2023-04-16T18:19:16.567Z,102803.03
2023-04-16T18:21:43.449Z,102803.47
2023-04-16T18:24:10.432Z,102801.06
2023-04-16T18:26:37.554Z,102814.00
2023-04-16T18:29:05.521Z,102812.38
2023-04-16T18:31:32.156Z,102810.34
2023-04-16T18:33:58.764Z,102817.88
2023-04-16T18:36:27.078Z,102813.41
2023-04-16T18:39:01.615Z,102823.97
2023-04-16T18:41:29.645Z,102821.31
2023-04-16T18:43:56.253Z,102823.81
2023-04-16T18:46:22.772Z,102831.72
2023-04-16T18:48:49.249Z,102821.41
2023-04-16T18:51:16.700Z,102832.94
2023-04-16T18:53:44.343Z,102824.81
2023-04-16T18:56:11.558Z,102833.31
2023-04-16T18:58:38.087Z,102833.44
2023-04-16T19:01:05.286Z,102833.44
2023-04-16T19:03:32.079Z,102835.28
2023-04-16T19:05:58.778Z,102823.97
2023-04-16T19:08:25.312Z,102832.06
2023-04-16T19:10:51.780Z,102828.72
2023-04-16T19:13:18.275Z,102829.72
2023-04-16T19:15:44.691Z,102833.16
2023-04-16T19:18:11.140Z,102830.75
2023-04-16T19:20:37.565Z,102842.09
2023-04-16T19:23:05.567Z,102844.13
2023-04-16T19:25:32.429Z,102844.94
2023-04-16T19:27:58.858Z,102844.59
2023-04-16T19:30:25.489Z,102848.00
2023-04-16T19:32:54.572Z,102852.03
2023-04-16T19:35:21.668Z,102844.13
2023-04-16T19:37:48.044Z,102852.63
2023-04-16T19:40:14.583Z,102847.81
2023-04-16T19:42:41.228Z,102846.19
2023-04-16T19:45:07.910Z,102861.97
2023-04-16T19:47:34.325Z,102857.53
2023-04-16T19:50:00.908Z,102847.00
2023-04-16T19:52:27.353Z,102845.41
2023-04-16T19:54:53.755Z,102847.91
2023-04-16T19:57:21.201Z,102860.63
2023-04-16T19:59:47.670Z,102847.47
2023-04-16T20:02:14.159Z,102845.19
2023-04-16T20:04:40.657Z,102845.00
2023-04-16T20:07:07.182Z,102843.16
2023-04-16T20:09:33.650Z,102853.91
2023-04-16T20:12:00.708Z,102859.59
2023-04-16T20:14:27.270Z,102851.25
2023-04-16T20:16:53.754Z,102852.88
2023-04-16T20:19:20.133Z,102867.88
2023-04-16T20:21:46.648Z,102859.00
2023-04-16T20:24:15.247Z,102861.06
2023-04-16T20:26:41.833Z,102857.63
2023-04-16T20:29:10.120Z,102850.09
2023-04-16T20:31:36.727Z,102856.00
2023-04-16T20:34:03.731Z,102849.38
2023-04-16T20:36:30.423Z,102853.66
2023-04-16T20:38:56.882Z,102859.75
2023-04-16T20:41:25.001Z,102859.28
2023-04-16T20:43:52.872Z,102853.44
2023-04-16T20:46:24.303Z,102864.78
2023-04-16T20:48:51.399Z,102847.81
2023-04-16T20:51:17.821Z,102853.50
2023-04-16T20:53:44.223Z,102842.81
2023-04-16T20:56:14.657Z,102845.66
2023-04-16T20:58:41.780Z,102852.78
2023-04-16T21:01:08.323Z,102833.19
2023-04-16T21:03:35.217Z,102841.28
2023-04-16T21:06:01.983Z,102848.97
2023-04-16T21:08:28.484Z,102846.34
2023-04-16T21:10:54.869Z,102843.31
2023-04-16T21:13:21.699Z,102840.88
2023-04-16T21:15:48.293Z,102841.59
2023-04-16T21:18:14.917Z,102842.97
2023-04-16T21:20:41.390Z,102846.03
2023-04-16T21:23:07.846Z,102841.44
2023-04-16T21:25:34.291Z,102849.75
2023-04-16T21:28:03.658Z,102842.47
2023-04-16T21:30:30.073Z,102842.81
2023-04-16T21:32:56.589Z,102841.81
2023-04-16T21:35:23.121Z,102841.59
2023-04-16T21:37:49.610Z,102845.59
2023-04-16T21:40:16.205Z,102839.56
2023-04-16T21:42:42.664Z,102848.03
2023-04-16T21:45:10.161Z,102847.03
2023-04-16T21:47:37.079Z,102842.19
2023-04-16T21:50:03.962Z,102846.03
2023-04-16T21:52:30.535Z,102850.94
2023-04-16T21:54:56.910Z,102843.94
2023-04-16T21:57:23.390Z,102840.91
2023-04-16T21:59:49.901Z,102843.31
2023-04-16T22:02:16.427Z,102844.13
2023-04-16T22:04:43.564Z,102841.56
2023-04-16T22:07:10.010Z,102839.56
2023-04-16T22:09:36.600Z,102841.19
2023-04-16T22:12:03.290Z,102840.16
2023-04-16T22:14:30.200Z,102835.19
2023-04-16T22:16:56.737Z,102836.84
2023-04-16T22:19:23.322Z,102834.22
2023-04-16T22:21:49.778Z,102835.41
2023-04-16T22:24:16.275Z,102836.56
2023-04-16T22:26:42.719Z,102832.16
2023-04-16T22:29:09.363Z,102835.63
2023-04-16T22:31:36.157Z,102834.00
2023-04-16T22:34:03.564Z,102831.38
2023-04-16T22:36:31.239Z,102839.63
2023-04-16T22:38:57.650Z,102832.56
2023-04-16T22:41:24.098Z,102832.16
2023-04-16T22:43:52.470Z,102836.63
2023-04-16T22:46:24.601Z,102844.56
2023-04-16T22:48:51.773Z,102825.41
2023-04-16T22:51:18.286Z,102830.88
2023-04-16T22:53:44.692Z,102839.13
2023-04-16T22:56:11.701Z,102837.91
2023-04-16T22:58:38.420Z,102842.75
2023-04-16T23:01:04.911Z,102836.66
2023-04-16T23:03:31.893Z,102836.66
2023-04-16T23:05:58.322Z,102839.50
2023-04-16T23:08:24.721Z,102839.31
2023-04-16T23:10:51.087Z,102841.78
2023-04-16T23:13:17.513Z,102839.56
2023-04-16T23:15:43.959Z,102849.06
2023-04-16T23:18:10.597Z,102845.19
2023-04-16T23:20:37.113Z,102847.03
2023-04-16T23:23:03.506Z,102849.28
2023-04-16T23:25:29.930Z,102847.66
2023-04-16T23:27:56.741Z,102849.91
2023-04-16T23:30:23.184Z,102852.53
2023-04-16T23:32:49.690Z,102854.59
2023-04-16T23:35:22.607Z,102850.78
2023-04-16T23:37:49.328Z,102858.47
2023-04-16T23:40:16.380Z,102847.78
2023-04-16T23:42:42.781Z,102859.88
2023-04-16T23:45:09.594Z,102849.38
2023-04-16T23:47:36.030Z,102852.25
2023-04-16T23:50:02.666Z,102856.28
2023-04-16T23:52:29.095Z,102855.03
2023-04-16T23:54:55.629Z,102854.84
2023-04-16T23:57:22.027Z,102859.09
2023-04-16T23:59:48.464Z,102849.78
